sensor_id;sensor_type;location;lat;lon;timestamp;pressure;altitude;pressure_sealevel;temperature;humidity
37206;BME280;23099;42.636;23.198;2022-10-16T00:00:19;92603.53;;;6.05;88.25
37206;BME280;23099;42.636;23.198;2022-10-16T00:02:47;92618.50;;;6.10;87.40
37206;BME280;23099;42.636;23.198;2022-10-16T00:05:14;92610.53;;;6.10;87.33
37206;BME280;23099;42.636;23.198;2022-10-16T00:07:41;92615.38;;;6.08;86.87
37206;BME280;23099;42.636;23.198;2022-10-16T00:10:08;92620.25;;;6.06;87.24
37206;BME280;23099;42.636;23.198;2022-10-16T00:12:34;92619.31;;;6.01;87.39
37206;BME280;23099;42.636;23.198;2022-10-16T00:15:02;92623.53;;;6.02;87.52
37206;BME280;23099;42.636;23.198;2022-10-16T00:17:29;92614.78;;;6.02;87.65
37206;BME280;23099;42.636;23.198;2022-10-16T00:19:57;92614.78;;;6.02;87.48
37206;BME280;23099;42.636;23.198;2022-10-16T00:22:24;92620.72;;;5.99;86.83
37206;BME280;23099;42.636;23.198;2022-10-16T00:24:50;92621.03;;;5.97;86.32
37206;BME280;23099;42.636;23.198;2022-10-16T00:27:17;92631.03;;;5.92;86.84
37206;BME280;23099;42.636;23.198;2022-10-16T00:29:44;92628.53;;;5.87;86.51
37206;BME280;23099;42.636;23.198;2022-10-16T00:32:10;92622.91;;;5.80;87.33
37206;BME280;23099;42.636;23.198;2022-10-16T00:34:37;92627.31;;;5.76;87.51
37206;BME280;23099;42.636;23.198;2022-10-16T00:37:05;92640.22;;;5.77;88.01
37206;BME280;23099;42.636;23.198;2022-10-16T00:39:32;92633.50;;;5.80;88.02
37206;BME280;23099;42.636;23.198;2022-10-16T00:41:59;92627.91;;;5.81;88.12
37206;BME280;23099;42.636;23.198;2022-10-16T00:44:44;92622.78;;;5.76;87.85
37206;BME280;23099;42.636;23.198;2022-10-16T00:47:14;92619.94;;;5.81;88.13
37206;BME280;23099;42.636;23.198;2022-10-16T00:49:42;92622.75;;;5.85;87.83
37206;BME280;23099;42.636;23.198;2022-10-16T00:52:10;92620.56;;;5.87;87.65
37206;BME280;23099;42.636;23.198;2022-10-16T00:54:38;92616.81;;;5.88;87.15
37206;BME280;23099;42.636;23.198;2022-10-16T00:57:06;92623.41;;;5.90;87.43
37206;BME280;23099;42.636;23.198;2022-10-16T00:59:35;92624.19;;;5.91;87.36
37206;BME280;23099;42.636;23.198;2022-10-16T01:02:03;92619.47;;;5.88;87.37
37206;BME280;23099;42.636;23.198;2022-10-16T01:04:32;92625.59;;;5.88;86.98
37206;BME280;23099;42.636;23.198;2022-10-16T01:07:07;92619.63;;;5.83;86.75
37206;BME280;23099;42.636;23.198;2022-10-16T01:09:47;92617.75;;;5.83;86.29
37206;BME280;23099;42.636;23.198;2022-10-16T01:12:23;92620.56;;;5.78;86.70
37206;BME280;23099;42.636;23.198;2022-10-16T01:14:55;92624.19;;;5.74;85.86
37206;BME280;23099;42.636;23.198;2022-10-16T01:17:28;92628.84;;;5.68;85.08
37206;BME280;23099;42.636;23.198;2022-10-16T01:20:05;92633.38;;;5.67;84.98
37206;BME280;23099;42.636;23.198;2022-10-16T01:22:39;92622.47;;;5.52;86.29
37206;BME280;23099;42.636;23.198;2022-10-16T01:25:16;92617.66;;;5.45;87.06
37206;BME280;23099;42.636;23.198;2022-10-16T01:27:45;92613.91;;;5.46;87.65
37206;BME280;23099;42.636;23.198;2022-10-16T01:30:17;92600.81;;;5.41;86.90
37206;BME280;23099;42.636;23.198;2022-10-16T01:32:49;92611.88;;;5.43;87.47
37206;BME280;23099;42.636;23.198;2022-10-16T01:35:21;92612.19;;;5.42;87.49
37206;BME280;23099;42.636;23.198;2022-10-16T01:37:51;92616.72;;;5.41;86.69
37206;BME280;23099;42.636;23.198;2022-10-16T01:40:20;92622.34;;;5.31;86.97
37206;BME280;23099;42.636;23.198;2022-10-16T01:42:55;92623.91;;;5.32;88.14
37206;BME280;23099;42.636;23.198;2022-10-16T01:45:22;92628.13;;;5.33;89.34
37206;BME280;23099;42.636;23.198;2022-10-16T01:47:50;92630.91;;;5.37;89.71
37206;BME280;23099;42.636;23.198;2022-10-16T01:50:20;92635.41;;;5.36;90.52
37206;BME280;23099;42.636;23.198;2022-10-16T01:52:50;92629.50;;;5.39;90.76
37206;BME280;23099;42.636;23.198;2022-10-16T01:55:22;92637.31;;;5.44;90.77
37206;BME280;23099;42.636;23.198;2022-10-16T01:57:51;92628.25;;;5.45;91.06
37206;BME280;23099;42.636;23.198;2022-10-16T02:00:20;92634.81;;;5.48;91.24
37206;BME280;23099;42.636;23.198;2022-10-16T02:02:50;92642.31;;;5.46;90.90
37206;BME280;23099;42.636;23.198;2022-10-16T02:05:22;92637.94;;;5.41;89.15
37206;BME280;23099;42.636;23.198;2022-10-16T02:07:50;92646.50;;;5.38;87.39
37206;BME280;23099;42.636;23.198;2022-10-16T02:10:18;92647.59;;;5.37;87.21
37206;BME280;23099;42.636;23.198;2022-10-16T02:12:49;92644.94;;;5.37;87.48
37206;BME280;23099;42.636;23.198;2022-10-16T02:15:19;92648.66;;;5.36;87.88
37206;BME280;23099;42.636;23.198;2022-10-16T02:17:45;92656.50;;;5.32;88.80
37206;BME280;23099;42.636;23.198;2022-10-16T02:20:12;92659.91;;;5.33;90.03
37206;BME280;23099;42.636;23.198;2022-10-16T02:22:41;92661.16;;;5.27;90.38
37206;BME280;23099;42.636;23.198;2022-10-16T02:25:11;92665.38;;;5.28;91.04
37206;BME280;23099;42.636;23.198;2022-10-16T02:27:42;92661.63;;;5.29;91.21
37206;BME280;23099;42.636;23.198;2022-10-16T02:30:16;92669.88;;;5.36;90.97
37206;BME280;23099;42.636;23.198;2022-10-16T02:32:47;92663.34;;;5.42;90.60
37206;BME280;23099;42.636;23.198;2022-10-16T02:35:17;92668.78;;;5.37;88.41
37206;BME280;23099;42.636;23.198;2022-10-16T02:37:46;92666.16;;;5.28;86.84
37206;BME280;23099;42.636;23.198;2022-10-16T02:40:13;92670.66;;;5.28;87.07
37206;BME280;23099;42.636;23.198;2022-10-16T02:42:41;92672.97;;;5.12;86.79
37206;BME280;23099;42.636;23.198;2022-10-16T02:45:09;92673.72;;;4.95;87.37
37206;BME280;23099;42.636;23.198;2022-10-16T02:47:36;92677.16;;;4.96;88.92
37206;BME280;23099;42.636;23.198;2022-10-16T02:50:05;92681.84;;;4.90;90.02
37206;BME280;23099;42.636;23.198;2022-10-16T02:52:32;92679.19;;;4.90;91.16
37206;BME280;23099;42.636;23.198;2022-10-16T02:54:59;92673.72;;;4.95;91.58
37206;BME280;23099;42.636;23.198;2022-10-16T02:57:25;92676.41;;;5.04;91.36
37206;BME280;23099;42.636;23.198;2022-10-16T02:59:52;92679.84;;;5.05;90.66
37206;BME280;23099;42.636;23.198;2022-10-16T03:02:19;92680.94;;;5.04;88.83
37206;BME280;23099;42.636;23.198;2022-10-16T03:04:45;92679.69;;;5.10;87.78
37206;BME280;23099;42.636;23.198;2022-10-16T03:07:14;92680.16;;;5.03;88.28
37206;BME280;23099;42.636;23.198;2022-10-16T03:09:40;92676.25;;;5.01;89.23
37206;BME280;23099;42.636;23.198;2022-10-16T03:12:07;92678.13;;;5.09;89.68
37206;BME280;23099;42.636;23.198;2022-10-16T03:14:34;92673.91;;;5.08;87.81
37206;BME280;23099;42.636;23.198;2022-10-16T03:17:00;92679.84;;;5.05;87.13
37206;BME280;23099;42.636;23.198;2022-10-16T03:19:27;92677.81;;;5.02;87.21
37206;BME280;23099;42.636;23.198;2022-10-16T03:21:54;92676.25;;;5.01;87.21
37206;BME280;23099;42.636;23.198;2022-10-16T03:24:22;92673.13;;;4.98;87.95
37206;BME280;23099;42.636;23.198;2022-10-16T03:26:48;92672.94;;;4.95;87.43
37206;BME280;23099;42.636;23.198;2022-10-16T03:29:15;92681.38;;;4.97;87.26
37206;BME280;23099;42.636;23.198;2022-10-16T03:31:42;92682.91;;;4.89;87.76
37206;BME280;23099;42.636;23.198;2022-10-16T03:34:09;92691.00;;;4.84;88.76
37206;BME280;23099;42.636;23.198;2022-10-16T03:36:35;92681.06;;;4.90;89.47
37206;BME280;23099;42.636;23.198;2022-10-16T03:39:02;92687.75;;;4.96;89.55
37206;BME280;23099;42.636;23.198;2022-10-16T03:41:30;92679.38;;;5.03;89.03
37206;BME280;23099;42.636;23.198;2022-10-16T03:43:57;92677.31;;;5.00;89.26
37206;BME280;23099;42.636;23.198;2022-10-16T03:46:24;92675.63;;;5.04;89.09
37206;BME280;23099;42.636;23.198;2022-10-16T03:48:51;92676.41;;;5.04;88.58
37206;BME280;23099;42.636;23.198;2022-10-16T03:51:17;92674.84;;;5.03;87.30
37206;BME280;23099;42.636;23.198;2022-10-16T03:53:44;92675.16;;;5.02;86.88
37206;BME280;23099;42.636;23.198;2022-10-16T03:56:11;92669.38;;;5.00;86.47
37206;BME280;23099;42.636;23.198;2022-10-16T03:58:39;92685.44;;;5.03;87.10
37206;BME280;23099;42.636;23.198;2022-10-16T04:01:06;92667.50;;;5.00;87.59
37206;BME280;23099;42.636;23.198;2022-10-16T04:03:32;92675.28;;;4.96;87.51
37206;BME280;23099;42.636;23.198;2022-10-16T04:05:59;92677.63;;;4.98;86.56
37206;BME280;23099;42.636;23.198;2022-10-16T04:08:26;92674.34;;;4.92;86.97
37206;BME280;23099;42.636;23.198;2022-10-16T04:10:52;92673.88;;;4.90;87.70
37206;BME280;23099;42.636;23.198;2022-10-16T04:13:19;92670.91;;;4.92;87.40
37206;BME280;23099;42.636;23.198;2022-10-16T04:15:47;92676.06;;;4.88;87.06
37206;BME280;23099;42.636;23.198;2022-10-16T04:18:14;92672.16;;;4.86;86.60
37206;BME280;23099;42.636;23.198;2022-10-16T04:20:41;92680.81;;;4.69;86.47
37206;BME280;23099;42.636;23.198;2022-10-16T04:23:07;92679.09;;;4.65;87.42
37206;BME280;23099;42.636;23.198;2022-10-16T04:25:34;92675.06;;;4.67;87.65
37206;BME280;23099;42.636;23.198;2022-10-16T04:28:01;92675.19;;;4.62;88.55
37206;BME280;23099;42.636;23.198;2022-10-16T04:30:28;92670.84;;;4.66;88.59
37206;BME280;23099;42.636;23.198;2022-10-16T04:32:56;92673.97;;;4.68;87.96
37206;BME280;23099;42.636;23.198;2022-10-16T04:35:22;92669.63;;;4.72;88.71
37206;BME280;23099;42.636;23.198;2022-10-16T04:37:49;92677.09;;;4.79;88.21
37206;BME280;23099;42.636;23.198;2022-10-16T04:40:16;92677.09;;;4.79;87.54
37206;BME280;23099;42.636;23.198;2022-10-16T04:42:43;92670.72;;;4.71;87.23
37206;BME280;23099;42.636;23.198;2022-10-16T04:45:10;92678.47;;;4.68;87.75
37206;BME280;23099;42.636;23.198;2022-10-16T04:47:37;92680.97;;;4.64;88.59
37206;BME280;23099;42.636;23.198;2022-10-16T04:50:06;92669.13;;;4.61;88.31
37206;BME280;23099;42.636;23.198;2022-10-16T04:52:33;92682.22;;;4.67;88.63
37206;BME280;23099;42.636;23.198;2022-10-16T04:54:59;92684.53;;;4.59;88.64
37206;BME280;23099;42.636;23.198;2022-10-16T04:57:28;92698.22;;;4.53;87.01
37206;BME280;23099;42.636;23.198;2022-10-16T04:59:55;92703.16;;;4.46;85.79
37206;BME280;23099;42.636;23.198;2022-10-16T05:02:22;92706.41;;;4.43;85.86
37206;BME280;23099;42.636;23.198;2022-10-16T05:04:48;92710.94;;;4.42;86.21
37206;BME280;23099;42.636;23.198;2022-10-16T05:07:16;92709.56;;;4.45;86.40
37206;BME280;23099;42.636;23.198;2022-10-16T05:09:43;92705.94;;;4.41;86.40
37206;BME280;23099;42.636;23.198;2022-10-16T05:12:10;92709.38;;;4.41;86.49
37206;BME280;23099;42.636;23.198;2022-10-16T05:14:37;92712.44;;;4.35;87.10
37206;BME280;23099;42.636;23.198;2022-10-16T05:17:03;92711.03;;;4.29;89.24
37206;BME280;23099;42.636;23.198;2022-10-16T05:19:30;92715.44;;;4.42;90.57
37206;BME280;23099;42.636;23.198;2022-10-16T05:21:57;92719.88;;;4.55;91.57
37206;BME280;23099;42.636;23.198;2022-10-16T05:24:25;92713.38;;;4.70;92.57
37206;BME280;23099;42.636;23.198;2022-10-16T05:26:52;92707.19;;;4.83;96.00
37206;BME280;23099;42.636;23.198;2022-10-16T05:29:19;92713.63;;;4.99;95.62
37206;BME280;23099;42.636;23.198;2022-10-16T05:31:46;92707.25;;;5.09;95.20
37206;BME280;23099;42.636;23.198;2022-10-16T05:34:13;92703.34;;;5.06;94.73
37206;BME280;23099;42.636;23.198;2022-10-16T05:36:40;92714.16;;;5.18;94.09
37206;BME280;23099;42.636;23.198;2022-10-16T05:39:06;92709.94;;;5.26;95.32
37206;BME280;23099;42.636;23.198;2022-10-16T05:41:34;92716.50;;;5.37;95.15
37206;BME280;23099;42.636;23.198;2022-10-16T05:44:04;92718.69;;;5.44;96.05
37206;BME280;23099;42.636;23.198;2022-10-16T05:46:30;92719.47;;;5.53;96.68
37206;BME280;23099;42.636;23.198;2022-10-16T05:48:57;92719.81;;;5.60;97.60
37206;BME280;23099;42.636;23.198;2022-10-16T05:51:24;92720.28;;;5.71;96.91
37206;BME280;23099;42.636;23.198;2022-10-16T05:53:52;92720.72;;;5.81;97.67
37206;BME280;23099;42.636;23.198;2022-10-16T05:56:19;92729.94;;;5.84;95.31
37206;BME280;23099;42.636;23.198;2022-10-16T05:58:47;92731.69;;;5.88;95.78
37206;BME280;23099;42.636;23.198;2022-10-16T06:01:15;92735.91;;;5.98;96.26
37206;BME280;23099;42.636;23.198;2022-10-16T06:03:42;92735.25;;;6.10;96.62
37206;BME280;23099;42.636;23.198;2022-10-16T06:06:10;92732.91;;;6.17;96.75
37206;BME280;23099;42.636;23.198;2022-10-16T06:08:37;92740.53;;;6.27;96.87
37206;BME280;23099;42.636;23.198;2022-10-16T06:11:05;92742.88;;;6.37;96.55
37206;BME280;23099;42.636;23.198;2022-10-16T06:13:32;92747.69;;;6.44;96.56
37206;BME280;23099;42.636;23.198;2022-10-16T06:16:01;92750.50;;;6.47;96.56
37206;BME280;23099;42.636;23.198;2022-10-16T06:18:29;92750.31;;;6.52;96.40
37206;BME280;23099;42.636;23.198;2022-10-16T06:20:56;92747.19;;;6.59;97.26
37206;BME280;23099;42.636;23.198;2022-10-16T06:23:23;92752.00;;;6.65;97.08
37206;BME280;23099;42.636;23.198;2022-10-16T06:25:50;92748.56;;;6.73;97.02
37206;BME280;23099;42.636;23.198;2022-10-16T06:28:17;92764.78;;;6.81;96.86
37206;BME280;23099;42.636;23.198;2022-10-16T06:30:43;92760.38;;;6.85;97.00
37206;BME280;23099;42.636;23.198;2022-10-16T06:33:12;92756.00;;;6.89;96.76
37206;BME280;23099;42.636;23.198;2022-10-16T06:35:39;92757.84;;;6.97;97.27
37206;BME280;23099;42.636;23.198;2022-10-16T06:38:05;92748.47;;;6.99;97.27
37206;BME280;23099;42.636;23.198;2022-10-16T06:40:32;92768.78;;;7.04;97.05
37206;BME280;23099;42.636;23.198;2022-10-16T06:42:59;92776.38;;;7.14;96.59
37206;BME280;23099;42.636;23.198;2022-10-16T06:45:26;92772.09;;;7.22;96.32
37206;BME280;23099;42.636;23.198;2022-10-16T06:47:52;92770.06;;;7.27;96.28
37206;BME280;23099;42.636;23.198;2022-10-16T06:50:20;92772.81;;;7.39;95.42
37206;BME280;23099;42.636;23.198;2022-10-16T06:52:47;92771.06;;;7.43;94.98
37206;BME280;23099;42.636;23.198;2022-10-16T06:55:14;92776.84;;;7.45;95.16
37206;BME280;23099;42.636;23.198;2022-10-16T06:57:42;92770.69;;;7.54;95.33
37206;BME280;23099;42.636;23.198;2022-10-16T07:00:09;92777.25;;;7.56;95.03
37206;BME280;23099;42.636;23.198;2022-10-16T07:02:36;92776.75;;;7.63;95.02
37206;BME280;23099;42.636;23.198;2022-10-16T07:05:03;92781.56;;;7.69;94.93
37206;BME280;23099;42.636;23.198;2022-10-16T07:07:31;92784.34;;;7.73;94.82
37206;BME280;23099;42.636;23.198;2022-10-16T07:09:58;92790.72;;;7.80;94.73
37206;BME280;23099;42.636;23.198;2022-10-16T07:12:25;92783.16;;;7.91;94.57
37206;BME280;23099;42.636;23.198;2022-10-16T07:14:52;92793.41;;;8.01;93.13
37206;BME280;23099;42.636;23.198;2022-10-16T07:17:20;92800.22;;;8.11;92.79
37206;BME280;23099;42.636;23.198;2022-10-16T07:19:46;92794.84;;;8.20;91.93
37206;BME280;23099;42.636;23.198;2022-10-16T07:22:13;92803.16;;;8.39;92.00
37206;BME280;23099;42.636;23.198;2022-10-16T07:24:41;92795.66;;;8.53;90.57
37206;BME280;23099;42.636;23.198;2022-10-16T07:27:08;92800.81;;;8.70;90.30
37206;BME280;23099;42.636;23.198;2022-10-16T07:29:35;92799.31;;;8.81;88.81
37206;BME280;23099;42.636;23.198;2022-10-16T07:32:02;92798.44;;;8.90;88.34
37206;BME280;23099;42.636;23.198;2022-10-16T07:34:29;92802.13;;;9.09;87.25
37206;BME280;23099;42.636;23.198;2022-10-16T07:36:56;92806.94;;;9.16;87.10
37206;BME280;23099;42.636;23.198;2022-10-16T07:39:22;92809.75;;;9.44;87.08
37206;BME280;23099;42.636;23.198;2022-10-16T07:41:50;92808.28;;;9.71;86.23
37206;BME280;23099;42.636;23.198;2022-10-16T07:44:17;92801.38;;;10.06;85.38
37206;BME280;23099;42.636;23.198;2022-10-16T07:46:44;92805.66;;;10.35;82.61
37206;BME280;23099;42.636;23.198;2022-10-16T07:49:10;92812.97;;;10.50;81.36
37206;BME280;23099;42.636;23.198;2022-10-16T07:51:37;92815.78;;;10.70;80.00
37206;BME280;23099;42.636;23.198;2022-10-16T07:54:04;92815.59;;;10.90;79.64
37206;BME280;23099;42.636;23.198;2022-10-16T07:56:32;92823.38;;;11.11;78.53
37206;BME280;23099;42.636;23.198;2022-10-16T07:59:00;92820.53;;;11.04;77.50
37206;BME280;23099;42.636;23.198;2022-10-16T08:01:27;92832.28;;;11.15;78.41
37206;BME280;23099;42.636;23.198;2022-10-16T08:03:53;92827.97;;;11.11;76.63
37206;BME280;23099;42.636;23.198;2022-10-16T08:06:22;92825.56;;;11.21;77.80
37206;BME280;23099;42.636;23.198;2022-10-16T08:08:49;92823.84;;;11.29;77.53
37206;BME280;23099;42.636;23.198;2022-10-16T08:11:16;92822.63;;;11.26;76.75
37206;BME280;23099;42.636;23.198;2022-10-16T08:13:43;92829.81;;;11.38;76.92
37206;BME280;23099;42.636;23.198;2022-10-16T08:16:11;92831.28;;;11.36;75.89
37206;BME280;23099;42.636;23.198;2022-10-16T08:18:39;92827.31;;;11.45;75.14
37206;BME280;23099;42.636;23.198;2022-10-16T08:21:07;92824.09;;;11.55;76.24
37206;BME280;23099;42.636;23.198;2022-10-16T08:23:37;92833.25;;;11.54;73.44
37206;BME280;23099;42.636;23.198;2022-10-16T08:26:06;92832.91;;;11.56;73.91
37206;BME280;23099;42.636;23.198;2022-10-16T08:28:33;92826.28;;;11.50;73.98
37206;BME280;23099;42.636;23.198;2022-10-16T08:31:08;92819.63;;;11.59;74.86
37206;BME280;23099;42.636;23.198;2022-10-16T08:33:37;92818.94;;;11.62;74.60
37206;BME280;23099;42.636;23.198;2022-10-16T08:36:05;92815.72;;;11.57;73.84
37206;BME280;23099;42.636;23.198;2022-10-16T08:38:33;92815.22;;;11.51;74.40
37206;BME280;23099;42.636;23.198;2022-10-16T08:41:13;92817.56;;;11.53;74.10
37206;BME280;23099;42.636;23.198;2022-10-16T08:43:54;92806.41;;;11.51;74.05
37206;BME280;23099;42.636;23.198;2022-10-16T08:46:35;92808.81;;;11.56;74.52
37206;BME280;23099;42.636;23.198;2022-10-16T08:49:10;92821.44;;;11.40;74.74
37206;BME280;23099;42.636;23.198;2022-10-16T08:51:38;92826.09;;;11.58;73.90
37206;BME280;23099;42.636;23.198;2022-10-16T08:54:10;92817.91;;;11.67;73.85
37206;BME280;23099;42.636;23.198;2022-10-16T08:56:39;92831.13;;;11.76;74.09
37206;BME280;23099;42.636;23.198;2022-10-16T08:59:10;92829.91;;;11.89;73.29
37206;BME280;23099;42.636;23.198;2022-10-16T09:01:39;92837.94;;;12.04;72.54
37206;BME280;23099;42.636;23.198;2022-10-16T09:04:41;92835.66;;;12.22;72.41
37206;BME280;23099;42.636;23.198;2022-10-16T09:07:13;92846.50;;;12.29;70.89
37206;BME280;23099;42.636;23.198;2022-10-16T09:09:54;92843.41;;;12.27;71.33
37206;BME280;23099;42.636;23.198;2022-10-16T09:12:27;92846.19;;;12.15;71.54
37206;BME280;23099;42.636;23.198;2022-10-16T09:15:01;92840.50;;;12.17;70.66
37206;BME280;23099;42.636;23.198;2022-10-16T09:17:42;92831.06;;;12.23;70.08
37206;BME280;23099;42.636;23.198;2022-10-16T09:20:32;92828.91;;;12.13;67.82
37206;BME280;23099;42.636;23.198;2022-10-16T09:23:12;92819.66;;;12.26;66.96
37206;BME280;23099;42.636;23.198;2022-10-16T09:25:43;92823.75;;;12.39;67.70
37206;BME280;23099;42.636;23.198;2022-10-16T09:28:11;92829.34;;;12.50;67.11
37206;BME280;23099;42.636;23.198;2022-10-16T09:30:38;92832.81;;;12.50;65.93
37206;BME280;23099;42.636;23.198;2022-10-16T09:33:06;92832.94;;;12.57;64.54
37206;BME280;23099;42.636;23.198;2022-10-16T09:35:38;92833.09;;;12.64;65.30
37206;BME280;23099;42.636;23.198;2022-10-16T09:38:05;92838.47;;;12.64;62.24
37206;BME280;23099;42.636;23.198;2022-10-16T09:40:33;92835.22;;;12.74;62.20
37206;BME280;23099;42.636;23.198;2022-10-16T09:43:21;92843.75;;;12.80;61.30
37206;BME280;23099;42.636;23.198;2022-10-16T09:45:56;92825.47;;;12.86;60.20
37206;BME280;23099;42.636;23.198;2022-10-16T09:48:25;92823.03;;;13.00;59.21
37206;BME280;23099;42.636;23.198;2022-10-16T09:50:58;92828.00;;;13.17;57.72
37206;BME280;23099;42.636;23.198;2022-10-16T09:53:36;92821.34;;;13.30;57.75
37206;BME280;23099;42.636;23.198;2022-10-16T09:56:04;92820.69;;;13.37;55.63
37206;BME280;23099;42.636;23.198;2022-10-16T09:58:31;92809.28;;;13.43;54.94
37206;BME280;23099;42.636;23.198;2022-10-16T10:00:59;92820.28;;;13.58;55.55
37206;BME280;23099;42.636;23.198;2022-10-16T10:03:38;92812.75;;;13.67;52.91
37206;BME280;23099;42.636;23.198;2022-10-16T10:06:17;92816.88;;;13.84;53.76
37206;BME280;23099;42.636;23.198;2022-10-16T10:08:55;92825.41;;;13.89;52.32
37206;BME280;23099;42.636;23.198;2022-10-16T10:11:42;92821.72;;;14.01;51.56
37206;BME280;23099;42.636;23.198;2022-10-16T10:14:18;92815.44;;;14.16;50.87
37206;BME280;23099;42.636;23.198;2022-10-16T10:16:46;92816.22;;;14.43;51.79
37206;BME280;23099;42.636;23.198;2022-10-16T10:19:14;92817.56;;;14.56;51.15
37206;BME280;23099;42.636;23.198;2022-10-16T10:21:43;92813.69;;;14.87;50.50
37206;BME280;23099;42.636;23.198;2022-10-16T10:24:11;92804.56;;;15.29;48.80
37206;BME280;23099;42.636;23.198;2022-10-16T10:26:44;92811.13;;;15.68;47.54
37206;BME280;23099;42.636;23.198;2022-10-16T10:29:32;92804.47;;;16.06;47.59
37206;BME280;23099;42.636;23.198;2022-10-16T10:32:09;92805.16;;;16.51;44.62
37206;BME280;23099;42.636;23.198;2022-10-16T10:34:51;92805.41;;;16.97;43.09
37206;BME280;23099;42.636;23.198;2022-10-16T10:37:37;92788.16;;;17.30;44.19
37206;BME280;23099;42.636;23.198;2022-10-16T10:40:30;92795.13;;;17.63;41.40
37206;BME280;23099;42.636;23.198;2022-10-16T10:43:06;92778.56;;;17.64;40.14
37206;BME280;23099;42.636;23.198;2022-10-16T10:45:42;92776.28;;;18.02;39.93
37206;BME280;23099;42.636;23.198;2022-10-16T10:48:20;92774.31;;;18.31;39.44
37206;BME280;23099;42.636;23.198;2022-10-16T10:50:49;92778.09;;;18.55;38.81
37206;BME280;23099;42.636;23.198;2022-10-16T10:53:29;92775.72;;;18.89;37.67
37206;BME280;23099;42.636;23.198;2022-10-16T10:56:09;92766.38;;;19.00;38.46
37206;BME280;23099;42.636;23.198;2022-10-16T10:59:02;92774.91;;;18.95;37.54
37206;BME280;23099;42.636;23.198;2022-10-16T11:01:40;92775.63;;;19.06;36.80
37206;BME280;23099;42.636;23.198;2022-10-16T11:04:25;92769.03;;;19.11;37.21
37206;BME280;23099;42.636;23.198;2022-10-16T11:06:59;92767.34;;;19.35;35.23
37206;BME280;23099;42.636;23.198;2022-10-16T11:09:33;92761.34;;;19.68;36.24
37206;BME280;23099;42.636;23.198;2022-10-16T11:12:06;92764.84;;;19.69;35.43
37206;BME280;23099;42.636;23.198;2022-10-16T11:14:36;92764.81;;;19.76;36.01
37206;BME280;23099;42.636;23.198;2022-10-16T11:17:09;92754.94;;;19.96;34.56
37206;BME280;23099;42.636;23.198;2022-10-16T11:19:42;92765.88;;;19.86;34.10
37206;BME280;23099;42.636;23.198;2022-10-16T11:22:17;92760.31;;;20.03;36.37
37206;BME280;23099;42.636;23.198;2022-10-16T11:24:49;92757.34;;;20.32;33.40
37206;BME280;23099;42.636;23.198;2022-10-16T11:27:25;92759.31;;;20.28;34.16
37206;BME280;23099;42.636;23.198;2022-10-16T11:29:58;92758.06;;;20.39;33.90
37206;BME280;23099;42.636;23.198;2022-10-16T11:32:31;92755.03;;;20.30;33.13
37206;BME280;23099;42.636;23.198;2022-10-16T11:35:07;92747.97;;;20.40;33.33
37206;BME280;23099;42.636;23.198;2022-10-16T11:37:41;92760.28;;;20.52;32.97
37206;BME280;23099;42.636;23.198;2022-10-16T11:40:19;92761.38;;;20.58;32.96
37206;BME280;23099;42.636;23.198;2022-10-16T11:42:51;92767.91;;;20.64;32.58
37206;BME280;23099;42.636;23.198;2022-10-16T11:45:28;92759.91;;;20.50;32.60
37206;BME280;23099;42.636;23.198;2022-10-16T11:48:02;92771.78;;;20.22;32.40
37206;BME280;23099;42.636;23.198;2022-10-16T11:50:38;92767.25;;;20.08;33.67
37206;BME280;23099;42.636;23.198;2022-10-16T11:53:13;92767.94;;;20.19;32.71
37206;BME280;23099;42.636;23.198;2022-10-16T11:55:45;92775.00;;;20.06;33.48
37206;BME280;23099;42.636;23.198;2022-10-16T11:58:16;92776.38;;;19.80;33.58
37206;BME280;23099;42.636;23.198;2022-10-16T12:00:55;92769.59;;;19.51;33.90
37206;BME280;23099;42.636;23.198;2022-10-16T12:03:29;92773.06;;;19.58;33.90
37206;BME280;23099;42.636;23.198;2022-10-16T12:06:14;92776.63;;;19.34;33.52
37206;BME280;23099;42.636;23.198;2022-10-16T12:08:44;92767.06;;;19.19;34.05
37206;BME280;23099;42.636;23.198;2022-10-16T12:11:24;92771.34;;;19.13;33.90
37206;BME280;23099;42.636;23.198;2022-10-16T12:14:05;92767.91;;;19.01;33.95
37206;BME280;23099;42.636;23.198;2022-10-16T12:16:33;92767.66;;;18.71;34.47
37206;BME280;23099;42.636;23.198;2022-10-16T12:19:10;92776.50;;;18.79;34.56
37206;BME280;23099;42.636;23.198;2022-10-16T12:21:37;92768.78;;;18.81;33.84
37206;BME280;23099;42.636;23.198;2022-10-16T12:24:05;92768.81;;;18.66;33.44
37206;BME280;23099;42.636;23.198;2022-10-16T12:26:34;92771.56;;;18.59;34.04
37206;BME280;23099;42.636;23.198;2022-10-16T12:29:14;92777.38;;;18.36;35.44
37206;BME280;23099;42.636;23.198;2022-10-16T12:31:46;92782.41;;;18.27;35.05
37206;BME280;23099;42.636;23.198;2022-10-16T12:34:21;92776.63;;;18.25;34.77
37206;BME280;23099;42.636;23.198;2022-10-16T12:36:49;92772.00;;;18.15;35.47
37206;BME280;23099;42.636;23.198;2022-10-16T12:39:21;92777.38;;;18.22;35.48
37206;BME280;23099;42.636;23.198;2022-10-16T12:42:00;92768.88;;;18.31;35.24
37206;BME280;23099;42.636;23.198;2022-10-16T12:44:32;92774.72;;;17.97;35.54
37206;BME280;23099;42.636;23.198;2022-10-16T12:46:59;92763.91;;;17.83;36.24
37206;BME280;23099;42.636;23.198;2022-10-16T12:49:31;92780.53;;;17.89;36.34
37206;BME280;23099;42.636;23.198;2022-10-16T12:51:58;92772.00;;;17.94;36.56
37206;BME280;23099;42.636;23.198;2022-10-16T12:54:28;92779.34;;;17.83;36.67
37206;BME280;23099;42.636;23.198;2022-10-16T12:57:08;92779.34;;;17.69;37.17
37206;BME280;23099;42.636;23.198;2022-10-16T12:59:42;92778.53;;;17.43;36.98
37206;BME280;23099;42.636;23.198;2022-10-16T13:05:37;92784.25;;;17.24;37.25
37206;BME280;23099;42.636;23.198;2022-10-16T13:08:35;92788.13;;;17.26;37.75
37206;BME280;23099;42.636;23.198;2022-10-16T13:11:14;92790.84;;;17.33;37.37
37206;BME280;23099;42.636;23.198;2022-10-16T13:13:58;92788.13;;;17.26;38.73